createdAt,value
2018-07-08T00:02:15.309Z,99171.34
2018-07-08T00:04:43.454Z,99174.02
2018-07-08T00:07:11.569Z,99174.67
2018-07-08T00:09:39.757Z,99175.87
2018-07-08T00:12:07.936Z,99177.03
2018-07-08T00:14:36.049Z,99174.87
2018-07-08T00:17:04.153Z,99178.51
2018-07-08T00:19:32.664Z,99181.67
2018-07-08T00:22:01.449Z,99181.69
2018-07-08T00:24:29.562Z,99179.36
2018-07-08T00:26:57.931Z,99176.34
2018-07-08T00:29:26.024Z,99179.52
2018-07-08T00:31:54.312Z,99177.97
2018-07-08T00:34:22.686Z,99176.30
2018-07-08T00:36:51.018Z,99184.28
2018-07-08T00:39:19.139Z,99182.28
2018-07-08T00:41:47.224Z,99183.98
2018-07-08T00:44:15.348Z,99180.78
2018-07-08T00:46:44.024Z,99181.30
2018-07-08T00:49:12.142Z,99181.28
2018-07-08T00:51:40.252Z,99182.27
2018-07-08T00:54:08.385Z,99174.95
2018-07-08T00:56:36.475Z,99179.11
2018-07-08T00:59:04.613Z,99176.63
2018-07-08T01:01:33.133Z,99182.17
2018-07-08T01:04:01.355Z,99184.00
2018-07-08T01:06:29.685Z,99182.13
2018-07-08T01:08:57.812Z,99184.02
2018-07-08T01:11:25.886Z,99187.33
2018-07-08T01:13:54.224Z,99186.97
2018-07-08T01:16:22.340Z,99188.34
2018-07-08T01:18:50.451Z,99190.67
2018-07-08T01:21:18.580Z,99186.34
2018-07-08T01:23:47.559Z,99191.69
2018-07-08T01:26:15.644Z,99192.52
2018-07-08T01:28:43.752Z,99190.52
2018-07-08T01:31:12.744Z,99187.50
2018-07-08T01:33:40.855Z,99186.33
2018-07-08T01:36:09.527Z,99188.66
2018-07-08T01:38:37.656Z,99185.64
2018-07-08T01:41:05.971Z,99185.63
2018-07-08T01:43:34.105Z,99185.30
2018-07-08T01:46:02.452Z,99183.45
2018-07-08T01:48:31.312Z,99187.11
2018-07-08T01:50:59.403Z,99187.62
2018-07-08T01:53:27.510Z,99184.74
2018-07-08T01:55:55.943Z,99182.40
2018-07-08T01:58:24.181Z,99181.42
2018-07-08T02:00:52.637Z,99185.55
2018-07-08T02:03:20.737Z,99184.20
2018-07-08T02:05:49.712Z,99184.20
2018-07-08T02:08:17.812Z,99188.53
2018-07-08T02:10:45.905Z,99186.83
2018-07-08T02:13:14.060Z,99185.48
2018-07-08T02:15:42.743Z,99191.17
2018-07-08T02:18:10.842Z,99190.33
2018-07-08T02:20:39.818Z,99188.32
2018-07-08T02:23:07.903Z,99191.83
2018-07-08T02:25:36.044Z,99195.00
2018-07-08T02:28:04.192Z,99189.32
2018-07-08T02:30:33.400Z,99188.83
2018-07-08T02:33:01.891Z,99192.15
2018-07-08T02:35:29.984Z,99191.98
2018-07-08T02:37:58.582Z,99194.00
2018-07-08T02:40:26.709Z,99194.30
2018-07-08T02:42:54.794Z,99190.48
2018-07-08T02:45:22.916Z,99192.66
2018-07-08T02:47:51.036Z,99189.48
2018-07-08T02:50:19.138Z,99195.45
2018-07-08T02:52:47.235Z,99194.45
2018-07-08T02:55:15.904Z,99202.74
2018-07-08T02:57:43.970Z,99197.73
2018-07-08T03:00:12.084Z,99195.51
2018-07-08T03:02:40.204Z,99200.77
2018-07-08T03:05:08.357Z,99198.36
2018-07-08T03:07:37.328Z,99198.22
2018-07-08T03:10:06.572Z,99200.85
2018-07-08T03:12:34.660Z,99199.47
2018-07-08T03:15:02.754Z,99200.73
2018-07-08T03:17:31.453Z,99201.55
2018-07-08T03:19:59.545Z,99193.73
2018-07-08T03:22:27.892Z,99205.14
2018-07-08T03:24:55.991Z,99207.53
2018-07-08T03:27:24.096Z,99205.16
2018-07-08T03:29:53.826Z,99211.67
2018-07-08T03:32:21.942Z,99209.98
2018-07-08T03:34:50.044Z,99203.82
2018-07-08T03:37:18.710Z,99199.11
2018-07-08T03:39:46.828Z,99203.66
2018-07-08T03:42:15.008Z,99201.64
2018-07-08T03:44:43.377Z,99202.28
2018-07-08T03:47:11.624Z,99202.81
2018-07-08T03:49:39.732Z,99204.46
2018-07-08T03:52:07.805Z,99207.03
2018-07-08T03:54:36.829Z,99205.47
2018-07-08T03:57:05.928Z,99202.41
2018-07-08T03:59:34.032Z,99206.11
2018-07-08T04:02:02.120Z,99204.27
2018-07-08T04:04:30.212Z,99208.61
2018-07-08T04:06:58.374Z,99209.17
2018-07-08T04:09:26.463Z,99205.99
2018-07-08T04:11:54.521Z,99202.13
2018-07-08T04:14:22.598Z,99202.29
2018-07-08T04:16:50.681Z,99201.20
2018-07-08T04:19:18.925Z,99194.20
2018-07-08T04:21:47.000Z,99200.36
2018-07-08T04:24:15.183Z,99203.50
2018-07-08T04:26:43.319Z,99211.03
2018-07-08T04:29:11.532Z,99218.95
2018-07-08T04:31:39.625Z,99209.41
2018-07-08T04:34:07.717Z,99203.66
2018-07-08T04:36:35.780Z,99198.67
2018-07-08T04:39:04.792Z,99201.27
2018-07-08T04:41:32.883Z,99196.85
2018-07-08T04:44:00.962Z,99198.47
2018-07-08T04:46:29.042Z,99203.63
2018-07-08T04:48:57.161Z,99207.06
2018-07-08T04:51:25.238Z,99196.64
2018-07-08T04:53:53.356Z,99199.86
2018-07-08T04:56:21.443Z,99199.48
2018-07-08T04:58:49.559Z,99198.26
2018-07-08T05:01:17.630Z,99203.45
2018-07-08T05:03:45.701Z,99198.28
2018-07-08T05:06:13.772Z,99195.74
2018-07-08T05:08:41.846Z,99193.24
2018-07-08T05:11:10.045Z,99192.19
2018-07-08T05:13:38.132Z,99196.02
2018-07-08T05:16:06.240Z,99194.81
2018-07-08T05:18:34.311Z,99199.03
2018-07-08T05:21:02.417Z,99199.75
2018-07-08T05:23:30.588Z,99205.07
2018-07-08T05:25:58.680Z,99199.13
2018-07-08T05:28:26.748Z,99203.33
2018-07-08T05:30:54.845Z,99201.14
2018-07-08T05:33:22.941Z,99203.27
2018-07-08T05:35:51.453Z,99211.80
2018-07-08T05:38:19.588Z,99209.05
2018-07-08T05:40:47.647Z,99212.21
2018-07-08T05:43:15.707Z,99208.47
2018-07-08T05:45:43.804Z,99216.35
2018-07-08T05:48:11.949Z,99218.38
2018-07-08T06:10:10.988Z,99217.66
2018-07-08T06:12:39.064Z,99225.09
2018-07-08T06:15:07.138Z,99226.23
2018-07-08T06:17:35.207Z,99228.86
2018-07-08T06:20:03.365Z,99227.00
2018-07-08T06:22:31.504Z,99224.57
2018-07-08T06:24:59.564Z,99219.52
2018-07-08T06:27:27.642Z,99223.11
2018-07-08T06:29:55.709Z,99216.09
2018-07-08T06:32:23.796Z,99217.47
2018-07-08T06:34:51.897Z,99222.98
2018-07-08T06:37:20.008Z,99221.38
2018-07-08T06:39:48.100Z,99224.73
2018-07-08T06:42:16.165Z,99219.21
2018-07-08T06:44:44.306Z,99227.05
2018-07-08T06:47:13.031Z,99233.28
2018-07-08T06:49:41.208Z,99235.02
2018-07-08T06:52:09.283Z,99238.67
2018-07-08T06:54:37.387Z,99243.84
2018-07-08T06:57:06.076Z,99242.82
2018-07-08T06:59:34.264Z,99238.08
2018-07-08T07:02:02.447Z,99237.89
2018-07-08T07:04:30.524Z,99239.09
2018-07-08T07:06:58.648Z,99238.64
2018-07-08T07:09:26.733Z,99240.88
2018-07-08T07:11:54.856Z,99243.78
2018-07-08T07:14:22.957Z,99240.77
2018-07-08T07:16:51.026Z,99240.01
2018-07-08T07:19:19.089Z,99232.20
2018-07-08T07:21:47.168Z,99236.40
2018-07-08T07:24:15.244Z,99231.50
2018-07-08T07:26:44.286Z,99229.19
2018-07-08T07:29:12.371Z,99230.45
2018-07-08T07:31:40.476Z,99228.41
2018-07-08T07:34:08.626Z,99230.69
2018-07-08T07:36:36.698Z,99230.47
2018-07-08T07:39:05.885Z,99230.70
2018-07-08T07:41:33.958Z,99230.64
2018-07-08T07:44:02.035Z,99230.50
2018-07-08T07:46:30.153Z,99227.31
2018-07-08T07:48:58.272Z,99231.36
2018-07-08T07:51:26.383Z,99224.89
2018-07-08T07:53:55.622Z,99222.51
2018-07-08T07:56:23.722Z,99221.47
2018-07-08T07:58:51.855Z,99222.48
2018-07-08T08:01:19.928Z,99222.73
2018-07-08T08:03:48.402Z,99222.02
2018-07-08T08:06:16.472Z,99217.55
2018-07-08T08:08:45.561Z,99214.61
2018-07-08T08:11:14.164Z,99219.22
2018-07-08T08:14:04.804Z,99215.83
2018-07-08T08:16:32.934Z,99214.84
2018-07-08T08:19:02.048Z,99215.48
2018-07-08T08:21:30.159Z,99210.98
2018-07-08T08:23:59.133Z,99209.58
2018-07-08T08:26:28.240Z,99210.26
2018-07-08T08:28:56.309Z,99216.01
2018-07-08T08:31:24.487Z,99221.56
2018-07-08T08:35:03.195Z,99222.55
2018-07-08T08:37:32.383Z,99213.56
2018-07-08T08:40:00.621Z,99215.93
2018-07-08T08:42:28.903Z,99210.98
2018-07-08T08:44:57.741Z,99211.41
2018-07-08T08:47:27.004Z,99212.01
2018-07-08T08:49:55.305Z,99208.40
2018-07-08T08:52:23.588Z,99212.66
2018-07-08T08:54:51.966Z,99212.41
2018-07-08T08:57:20.065Z,99211.06
2018-07-08T08:59:48.183Z,99215.72
2018-07-08T09:02:16.290Z,99214.10
2018-07-08T09:04:44.712Z,99211.25
2018-07-08T09:07:14.086Z,99214.81
2018-07-08T09:09:42.170Z,99207.53
2018-07-08T09:12:11.139Z,99208.53
2018-07-08T09:14:39.520Z,99203.83
2018-07-08T09:17:07.717Z,99200.30
2018-07-08T09:19:35.845Z,99200.67
2018-07-08T09:22:03.999Z,99206.48
2018-07-08T09:24:32.153Z,99202.48
2018-07-08T09:27:00.220Z,99202.02
2018-07-08T09:29:28.337Z,99199.30
2018-07-08T09:31:56.719Z,99203.44
2018-07-08T09:34:24.792Z,99202.40
2018-07-08T09:36:52.880Z,99201.30
2018-07-08T09:39:20.994Z,99210.22
2018-07-08T09:41:49.085Z,99207.85
2018-07-08T09:44:17.912Z,99210.24
2018-07-08T09:46:47.019Z,99208.62
2018-07-08T09:49:15.384Z,99197.18
2018-07-08T09:51:43.876Z,99203.99
2018-07-08T09:54:12.940Z,99201.00
2018-07-08T09:56:41.099Z,99207.39
2018-07-08T09:59:09.165Z,99206.27
2018-07-08T10:01:42.359Z,99198.97
2018-07-08T10:04:11.945Z,99205.30
2018-07-08T10:06:40.421Z,99198.99
2018-07-08T10:09:10.412Z,99197.05
2018-07-08T10:11:38.748Z,99202.94
2018-07-08T10:14:07.198Z,99200.05
2018-07-08T10:16:35.259Z,99203.38
2018-07-08T10:19:03.346Z,99203.59
2018-07-08T10:21:32.551Z,99203.60
2018-07-08T10:24:00.553Z,99200.03
2018-07-08T10:26:28.685Z,99203.07
2018-07-08T10:28:56.865Z,99194.20
2018-07-08T10:31:36.430Z,99201.13
2018-07-08T10:34:04.822Z,99194.97
2018-07-08T10:36:33.653Z,99202.37
2018-07-08T10:39:01.750Z,99196.70
2018-07-08T10:41:29.830Z,99201.65
2018-07-08T10:43:58.016Z,99196.34
2018-07-08T10:46:26.136Z,99195.58
2018-07-08T10:48:54.240Z,99191.08
2018-07-08T10:51:22.337Z,99190.23
2018-07-08T10:53:50.419Z,99188.91
2018-07-08T10:56:19.172Z,99197.55
2018-07-08T10:58:47.282Z,99188.34
2018-07-08T11:01:15.354Z,99181.61
2018-07-08T11:03:44.063Z,99181.23
2018-07-08T11:06:12.709Z,99187.72
2018-07-08T11:08:40.885Z,99181.78
2018-07-08T11:11:09.028Z,99182.80
2018-07-08T11:13:37.594Z,99185.31
2018-07-08T11:16:05.665Z,99179.23
2018-07-08T11:18:33.761Z,99176.42
2018-07-08T11:21:01.860Z,99183.26
2018-07-08T11:23:30.007Z,99176.28
2018-07-08T11:25:58.132Z,99173.45
2018-07-08T11:28:26.305Z,99172.78
2018-07-08T11:30:54.343Z,99169.03
2018-07-08T11:33:23.334Z,99169.83
2018-07-08T11:35:51.412Z,99167.76
2018-07-08T11:38:19.513Z,99167.33
2018-07-08T11:40:47.593Z,99164.36
2018-07-08T11:43:15.674Z,99161.43
2018-07-08T11:45:43.737Z,99168.34
2018-07-08T11:48:11.823Z,99165.33
2018-07-08T11:50:39.910Z,99160.15
2018-07-08T11:53:08.016Z,99165.09
2018-07-08T11:55:36.129Z,99163.51
2018-07-08T11:58:11.141Z,99151.94
2018-07-08T12:00:39.232Z,99158.26
2018-07-08T12:03:07.320Z,99164.67
2018-07-08T12:05:35.398Z,99158.42
2018-07-08T12:08:03.553Z,99163.75
2018-07-08T12:10:31.641Z,99164.52
2018-07-08T12:12:59.696Z,99163.98
2018-07-08T12:15:27.801Z,99158.80
2018-07-08T12:17:55.876Z,99167.92
2018-07-08T12:20:23.983Z,99160.83
2018-07-08T12:22:52.380Z,99158.51
2018-07-08T12:25:20.468Z,99164.46
2018-07-08T12:27:48.564Z,99165.75
2018-07-08T12:30:16.643Z,99162.36
2018-07-08T12:32:44.723Z,99159.95
2018-07-08T12:35:12.813Z,99161.09
2018-07-08T12:37:40.880Z,99156.00
2018-07-08T12:40:08.971Z,99159.47
2018-07-08T12:42:37.077Z,99162.83
2018-07-08T12:45:05.168Z,99159.12
2018-07-08T12:47:33.260Z,99153.75
2018-07-08T12:50:01.349Z,99160.31
2018-07-08T12:52:29.434Z,99152.83
2018-07-08T12:54:57.607Z,99142.54
2018-07-08T12:57:25.684Z,99144.55
2018-07-08T12:59:53.761Z,99148.47
2018-07-08T13:02:21.885Z,99139.77
2018-07-08T13:04:49.953Z,99135.70
2018-07-08T13:07:18.072Z,99139.42
2018-07-08T13:09:46.160Z,99133.40
2018-07-08T13:12:14.252Z,99129.22
2018-07-08T13:14:42.345Z,99124.14
2018-07-08T13:17:10.433Z,99125.81
2018-07-08T13:19:38.504Z,99129.81
2018-07-08T13:22:06.598Z,99134.80
2018-07-08T13:24:34.685Z,99139.39
2018-07-08T13:27:02.774Z,99135.69
2018-07-08T13:29:30.863Z,99142.08
2018-07-08T13:31:58.989Z,99147.20
2018-07-08T13:34:27.056Z,99149.09
2018-07-08T13:36:55.577Z,99147.20
2018-07-08T13:39:23.645Z,99137.01
2018-07-08T13:41:51.738Z,99137.07
2018-07-08T13:44:19.825Z,99135.41
2018-07-08T13:46:47.917Z,99139.18
2018-07-08T13:49:15.998Z,99131.25
2018-07-08T13:51:44.095Z,99137.66
2018-07-08T13:54:12.181Z,99131.26
2018-07-08T13:56:40.278Z,99123.11
2018-07-08T13:59:08.364Z,99133.05
2018-07-08T14:01:36.464Z,99122.55
2018-07-08T14:04:04.567Z,99126.28
2018-07-08T14:06:32.695Z,99126.41
2018-07-08T14:09:00.784Z,99123.41
2018-07-08T14:11:35.742Z,99123.80
2018-07-08T14:14:04.441Z,99123.21
2018-07-08T14:16:32.626Z,99120.10
2018-07-08T14:19:00.698Z,99117.63
2018-07-08T14:41:58.597Z,99115.14
2018-07-08T14:44:26.936Z,99110.88
2018-07-08T14:46:55.000Z,99116.02
2018-07-08T14:49:23.072Z,99114.25
2018-07-08T14:51:51.219Z,99114.71
2018-07-08T14:54:19.367Z,99121.33
2018-07-08T14:56:47.450Z,99116.78
2018-07-08T14:59:15.579Z,99123.89
2018-07-08T15:01:43.940Z,99116.46
2018-07-08T15:04:12.010Z,99116.38
2018-07-08T15:06:43.644Z,99115.56
2018-07-08T15:09:13.879Z,99114.82
2018-07-08T15:11:43.440Z,99107.70
2018-07-08T15:16:45.819Z,99105.86
2018-07-08T15:19:13.904Z,99104.79
2018-07-08T15:21:42.105Z,99110.91
2018-07-08T15:24:10.152Z,99106.11
2018-07-08T15:26:38.226Z,99103.37
2018-07-08T15:29:06.299Z,99102.21
2018-07-08T15:31:34.376Z,99098.89
2018-07-08T15:34:02.440Z,99102.92
2018-07-08T15:36:30.521Z,99097.28
2018-07-08T15:38:58.653Z,99093.37
2018-07-08T15:41:26.739Z,99095.47
2018-07-08T15:43:55.309Z,99100.70
2018-07-08T15:46:23.405Z,99097.88
2018-07-08T15:48:51.496Z,99092.98
2018-07-08T15:51:19.665Z,99099.95
2018-07-08T15:53:47.738Z,99099.09
2018-07-08T15:56:15.808Z,99093.70
2018-07-08T15:58:43.901Z,99095.38
2018-07-08T16:01:11.968Z,99105.08
2018-07-08T16:03:40.056Z,99090.64
2018-07-08T16:06:08.479Z,99098.48
2018-07-08T16:08:36.497Z,99090.33
2018-07-08T16:11:04.843Z,99091.23
2018-07-08T16:13:32.944Z,99090.70
2018-07-08T16:16:01.669Z,99094.13
2018-07-08T16:18:29.883Z,99094.21
2018-07-08T16:20:57.917Z,99087.50
2018-07-08T16:23:26.066Z,99091.59
2018-07-08T16:25:54.589Z,99088.20
2018-07-08T16:28:22.596Z,99088.72
2018-07-08T16:30:50.676Z,99091.17
2018-07-08T16:33:18.757Z,99087.45
2018-07-08T16:35:51.631Z,99085.70
2018-07-08T16:38:19.763Z,99082.64
2018-07-08T16:40:48.011Z,99082.53
2018-07-08T16:43:16.119Z,99085.84
2018-07-08T16:45:44.224Z,99087.85
2018-07-08T16:48:12.393Z,99082.20
2018-07-08T16:50:40.468Z,99086.67
2018-07-08T16:53:08.822Z,99080.31
2018-07-08T16:55:37.338Z,99076.03
2018-07-08T16:58:06.129Z,99070.99
2018-07-08T17:00:34.248Z,99068.22
2018-07-08T17:03:02.332Z,99070.41
2018-07-08T17:05:30.460Z,99073.70
2018-07-08T17:07:58.869Z,99069.11
2018-07-08T17:10:26.957Z,99073.47
2018-07-08T17:12:55.040Z,99072.76
2018-07-08T17:15:23.145Z,99065.78
2018-07-08T17:17:51.238Z,99065.63
2018-07-08T17:20:19.360Z,99065.56
2018-07-08T17:22:47.435Z,99074.14
2018-07-08T17:25:15.516Z,99075.46
2018-07-08T17:27:43.586Z,99075.03
2018-07-08T17:30:11.657Z,99076.10
2018-07-08T17:32:39.733Z,99073.06
2018-07-08T17:35:08.528Z,99074.77
2018-07-08T17:37:36.601Z,99077.38
2018-07-08T17:40:04.706Z,99078.11
2018-07-08T17:42:32.773Z,99075.64
2018-07-08T17:45:00.848Z,99074.43
2018-07-08T17:47:28.948Z,99075.38
2018-07-08T17:49:57.031Z,99077.85
2018-07-08T17:52:25.109Z,99075.44
2018-07-08T17:54:53.180Z,99078.09
2018-07-08T17:57:21.373Z,99072.24
2018-07-08T17:59:49.431Z,99073.33
2018-07-08T18:02:17.508Z,99073.22
2018-07-08T18:04:45.580Z,99072.80
2018-07-08T18:07:13.634Z,99071.37
2018-07-08T18:09:42.021Z,99074.31
2018-07-08T18:12:10.092Z,99075.72
2018-07-08T18:14:38.181Z,99075.11
2018-07-08T18:17:06.294Z,99082.28
2018-07-08T18:19:34.402Z,99079.52
2018-07-08T18:22:02.881Z,99085.98
2018-07-08T18:24:31.156Z,99087.87
2018-07-08T18:26:59.284Z,99087.46
2018-07-08T18:29:27.355Z,99088.30
2018-07-08T18:31:55.704Z,99082.10
2018-07-08T18:34:23.763Z,99083.66
2018-07-08T18:36:51.843Z,99079.94
2018-07-08T18:39:19.916Z,99080.56
2018-07-08T18:41:48.000Z,99085.84
2018-07-08T18:44:16.081Z,99087.70
2018-07-08T18:46:44.171Z,99097.29
2018-07-08T18:49:12.273Z,99098.94
2018-07-08T18:51:40.728Z,99095.20
2018-07-08T18:54:08.805Z,99094.29
2018-07-08T18:56:36.919Z,99096.85
2018-07-08T18:59:05.010Z,99097.36
2018-07-08T19:01:33.115Z,99109.30
2018-07-08T19:04:01.195Z,99101.63
2018-07-08T19:06:29.266Z,99114.52
2018-07-08T19:08:57.334Z,99109.66
2018-07-08T19:11:25.411Z,99110.45
2018-07-08T19:13:53.492Z,99112.48
2018-07-08T19:16:21.573Z,99111.34
2018-07-08T19:18:49.648Z,99111.94
2018-07-08T19:21:17.704Z,99111.69
2018-07-08T19:23:45.796Z,99112.88
2018-07-08T19:26:13.956Z,99114.78
2018-07-08T19:28:42.050Z,99114.97
2018-07-08T19:31:10.112Z,99112.36
2018-07-08T19:33:38.190Z,99117.44
2018-07-08T19:36:06.268Z,99120.66
2018-07-08T19:38:34.395Z,99119.56
2018-07-08T19:41:02.786Z,99119.97
2018-07-08T19:43:30.887Z,99131.98
2018-07-08T19:45:58.995Z,99132.48
2018-07-08T19:48:27.089Z,99132.30
2018-07-08T19:50:55.180Z,99139.55
2018-07-08T19:53:23.269Z,99149.55
2018-07-08T19:55:51.699Z,99146.55
2018-07-08T19:58:19.780Z,99150.62
2018-07-08T20:00:48.196Z,99151.33
2018-07-08T20:03:16.283Z,99157.83
2018-07-08T20:05:44.358Z,99156.72
2018-07-08T20:08:12.921Z,99151.55
2018-07-08T20:10:40.973Z,99150.95
2018-07-08T20:13:09.041Z,99153.21
2018-07-08T20:15:37.229Z,99159.61
2018-07-08T20:18:05.336Z,99157.80
2018-07-08T20:20:33.411Z,99150.96
2018-07-08T20:23:01.766Z,99160.81
2018-07-08T20:25:29.859Z,99159.17
2018-07-08T20:27:58.176Z,99158.69
2018-07-08T20:30:26.336Z,99160.71
2018-07-08T20:32:54.840Z,99152.23
2018-07-08T20:35:22.970Z,99156.94
2018-07-08T20:37:51.020Z,99163.59
2018-07-08T20:40:19.096Z,99160.27
2018-07-08T20:42:47.257Z,99160.80
2018-07-08T20:45:15.419Z,99159.65
2018-07-08T20:47:44.069Z,99156.35
2018-07-08T20:50:12.136Z,99159.69
2018-07-08T20:52:40.217Z,99161.67
2018-07-08T20:55:08.303Z,99160.85
2018-07-08T20:57:36.363Z,99158.70
2018-07-08T21:00:04.529Z,99159.52
2018-07-08T21:02:44.648Z,99152.01
2018-07-08T21:05:12.715Z,99158.66
2018-07-08T21:07:41.183Z,99162.96
2018-07-08T21:10:09.545Z,99157.27
2018-07-08T21:12:37.627Z,99157.93
2018-07-08T21:15:06.019Z,99160.23
2018-07-08T21:17:34.072Z,99161.52
2018-07-08T21:20:02.153Z,99159.00
2018-07-08T21:22:30.513Z,99163.74
2018-07-08T21:24:58.644Z,99167.36
2018-07-08T21:27:26.716Z,99163.09
2018-07-08T21:29:54.791Z,99172.63
2018-07-08T21:32:22.868Z,99169.67
2018-07-08T21:34:50.940Z,99166.22
2018-07-08T21:37:19.114Z,99173.52
2018-07-08T21:39:47.167Z,99167.53
2018-07-08T21:42:16.261Z,99172.68
2018-07-08T21:44:45.703Z,99170.45
2018-07-08T21:47:13.830Z,99171.03
2018-07-08T21:49:41.826Z,99175.11
2018-07-08T21:52:09.910Z,99171.28
2018-07-08T21:54:37.985Z,99174.95
2018-07-08T21:57:06.076Z,99176.28
2018-07-08T23:48:49.885Z,99147.68
2018-07-08T23:51:18.215Z,99152.78
2018-07-08T23:53:46.485Z,99153.64
2018-07-08T23:56:14.736Z,99152.34
2018-07-08T23:58:43.713Z,99153.22
